TimeCST,TemperatureF,Dew PointF,Humidity,Sea Level PressureIn,VisibilityMPH,Wind Direction,Wind SpeedMPH,Gust SpeedMPH,PrecipitationIn,Events,Conditions,WindDirDegrees,DateUTC
1:52 AM,27.0,24.1,89,30.22,6.0,Calm,Calm,-,N/A,,Clear,0,2013-01-08 07:52:00
2:52 AM,25.0,21.9,88,30.22,6.0,Calm,Calm,-,N/A,,Clear,0,2013-01-08 08:52:00
3:52 AM,24.1,19.9,84,30.22,4.0,Calm,Calm,-,N/A,,Clear,0,2013-01-08 09:52:00
4:52 AM,25.0,21.9,88,30.21,5.0,Calm,Calm,-,N/A,,Clear,0,2013-01-08 10:52:00
5:52 AM,25.0,21.0,85,30.23,5.0,Calm,Calm,-,N/A,,Clear,0,2013-01-08 11:52:00
6:52 AM,25.0,21.9,88,30.25,5.0,Calm,Calm,-,N/A,,Clear,0,2013-01-08 12:52:00
7:52 AM,26.1,21.9,84,30.26,4.0,Calm,Calm,-,N/A,,Clear,0,2013-01-08 13:52:00
8:52 AM,28.9,26.1,89,30.28,4.0,Calm,Calm,-,N/A,,Mostly Cloudy,0,2013-01-08 14:52:00
10:52 AM,43.0,28.0,56,30.25,10.0,South,5.8,-,N/A,,Clear,170,2013-01-08 16:52:00
11:52 AM,46.9,30.0,52,30.22,10.0,South,8.1,-,N/A,,Clear,170,2013-01-08 17:52:00
12:52 PM,50.0,30.9,48,30.20,10.0,SSW,11.5,-,N/A,,Clear,200,2013-01-08 18:52:00
1:52 PM,51.1,30.9,46,30.18,10.0,South,6.9,-,N/A,,Clear,180,2013-01-08 19:52:00
2:52 PM,48.9,30.9,50,30.19,10.0,SE,6.9,-,N/A,,Overcast,140,2013-01-08 20:52:00
3:52 PM,48.0,33.1,56,30.18,10.0,SSE,5.8,-,N/A,,Overcast,150,2013-01-08 21:52:00
4:52 PM,45.0,33.1,63,-9999,10.0,SSE,8.1,-,N/A,,Overcast,160,2013-01-08 22:52:00
5:52 PM,44.1,33.1,65,-9999,10.0,South,3.5,-,N/A,,Mostly Cloudy,170,2013-01-08 23:52:00
7:52 PM,45.0,34.0,65,-9999,10.0,SSE,4.6,-,N/A,,Overcast,150,2013-01-09 01:52:00
8:52 PM,44.1,34.0,68,-9999,10.0,SSE,5.8,-,N/A,,Overcast,160,2013-01-09 02:52:00
9:52 PM,45.0,34.0,65,-9999,10.0,Calm,Calm,-,N/A,,Overcast,0,2013-01-09 03:52:00
10:52 PM,46.0,34.0,63,-9999,10.0,Calm,Calm,-,N/A,,Partly Cloudy,0,2013-01-09 04:52:00